sensor_id;sensor_type;location;lat;lon;timestamp;P1;durP1;ratioP1;P2;durP2;ratioP2
15848;SDS011;8024;48.708;9.394;2023-02-28T00:00:20;3.53;;;2.97;;
15848;SDS011;8024;48.708;9.394;2023-02-28T00:02:49;2.53;;;2.30;;
15848;SDS011;8024;48.708;9.394;2023-02-28T00:05:17;2.27;;;1.83;;
15848;SDS011;8024;48.708;9.394;2023-02-28T00:07:46;2.33;;;2.10;;
15848;SDS011;8024;48.708;9.394;2023-02-28T00:10:15;2.73;;;2.50;;
15848;SDS011;8024;48.708;9.394;2023-02-28T00:12:44;2.40;;;2.20;;
15848;SDS011;8024;48.708;9.394;2023-02-28T00:15:11;3.03;;;2.03;;
15848;SDS011;8024;48.708;9.394;2023-02-28T00:17:38;2.17;;;2.07;;
15848;SDS011;8024;48.708;9.394;2023-02-28T00:20:08;3.17;;;2.90;;
15848;SDS011;8024;48.708;9.394;2023-02-28T00:22:37;2.20;;;2.00;;
15848;SDS011;8024;48.708;9.394;2023-02-28T00:25:05;2.37;;;2.13;;
15848;SDS011;8024;48.708;9.394;2023-02-28T00:27:33;4.00;;;2.50;;
15848;SDS011;8024;48.708;9.394;2023-02-28T00:30:01;2.53;;;1.90;;
15848;SDS011;8024;48.708;9.394;2023-02-28T00:32:29;3.43;;;2.03;;
15848;SDS011;8024;48.708;9.394;2023-02-28T00:34:57;4.73;;;2.37;;
15848;SDS011;8024;48.708;9.394;2023-02-28T00:37:25;2.23;;;2.13;;
15848;SDS011;8024;48.708;9.394;2023-02-28T00:39:52;2.00;;;1.80;;
15848;SDS011;8024;48.708;9.394;2023-02-28T00:42:20;2.60;;;2.40;;
15848;SDS011;8024;48.708;9.394;2023-02-28T00:44:47;2.50;;;2.30;;
15848;SDS011;8024;48.708;9.394;2023-02-28T00:47:14;2.40;;;2.20;;
15848;SDS011;8024;48.708;9.394;2023-02-28T00:49:42;1.97;;;1.87;;
15848;SDS011;8024;48.708;9.394;2023-02-28T00:52:09;2.60;;;2.40;;
15848;SDS011;8024;48.708;9.394;2023-02-28T00:54:38;3.33;;;1.90;;
15848;SDS011;8024;48.708;9.394;2023-02-28T00:57:05;3.57;;;2.37;;
15848;SDS011;8024;48.708;9.394;2023-02-28T00:59:32;3.60;;;2.43;;
15848;SDS011;8024;48.708;9.394;2023-02-28T01:01:59;3.07;;;2.87;;
15848;SDS011;8024;48.708;9.394;2023-02-28T01:04:26;2.97;;;2.50;;
15848;SDS011;8024;48.708;9.394;2023-02-28T01:06:53;3.27;;;2.60;;
15848;SDS011;8024;48.708;9.394;2023-02-28T01:09:21;2.90;;;2.00;;
15848;SDS011;8024;48.708;9.394;2023-02-28T01:11:49;2.53;;;2.33;;
15848;SDS011;8024;48.708;9.394;2023-02-28T01:14:16;2.70;;;2.50;;
15848;SDS011;8024;48.708;9.394;2023-02-28T01:16:45;2.73;;;2.30;;
15848;SDS011;8024;48.708;9.394;2023-02-28T01:19:12;2.60;;;2.37;;
15848;SDS011;8024;48.708;9.394;2023-02-28T01:21:39;2.80;;;2.60;;
15848;SDS011;8024;48.708;9.394;2023-02-28T01:24:07;3.03;;;2.83;;
15848;SDS011;8024;48.708;9.394;2023-02-28T01:26:34;2.30;;;2.20;;
15848;SDS011;8024;48.708;9.394;2023-02-28T01:29:02;4.37;;;2.60;;
15848;SDS011;8024;48.708;9.394;2023-02-28T01:31:29;3.43;;;2.80;;
15848;SDS011;8024;48.708;9.394;2023-02-28T01:33:57;2.93;;;2.73;;
15848;SDS011;8024;48.708;9.394;2023-02-28T01:36:24;2.93;;;2.77;;
15848;SDS011;8024;48.708;9.394;2023-02-28T01:38:52;3.33;;;3.00;;
15848;SDS011;8024;48.708;9.394;2023-02-28T01:41:21;3.10;;;2.53;;
15848;SDS011;8024;48.708;9.394;2023-02-28T01:43:54;3.40;;;2.80;;
15848;SDS011;8024;48.708;9.394;2023-02-28T01:46:29;3.03;;;2.83;;
15848;SDS011;8024;48.708;9.394;2023-02-28T01:48:59;2.90;;;2.40;;
15848;SDS011;8024;48.708;9.394;2023-02-28T01:51:31;3.10;;;2.53;;
15848;SDS011;8024;48.708;9.394;2023-02-28T01:54:02;3.93;;;3.53;;
15848;SDS011;8024;48.708;9.394;2023-02-28T01:56:38;3.83;;;2.73;;
15848;SDS011;8024;48.708;9.394;2023-02-28T01:59:10;3.27;;;2.63;;
15848;SDS011;8024;48.708;9.394;2023-02-28T02:01:40;2.53;;;2.30;;
15848;SDS011;8024;48.708;9.394;2023-02-28T02:04:08;3.50;;;2.70;;
15848;SDS011;8024;48.708;9.394;2023-02-28T02:06:37;3.30;;;3.00;;
15848;SDS011;8024;48.708;9.394;2023-02-28T02:09:07;3.73;;;3.13;;
15848;SDS011;8024;48.708;9.394;2023-02-28T02:11:34;3.03;;;2.80;;
15848;SDS011;8024;48.708;9.394;2023-02-28T02:14:10;2.90;;;2.70;;
15848;SDS011;8024;48.708;9.394;2023-02-28T02:16:53;5.67;;;3.60;;
15848;SDS011;8024;48.708;9.394;2023-02-28T02:19:46;3.47;;;3.10;;
15848;SDS011;8024;48.708;9.394;2023-02-28T02:22:43;2.93;;;2.80;;
15848;SDS011;8024;48.708;9.394;2023-02-28T02:25:39;2.70;;;2.47;;
15848;SDS011;8024;48.708;9.394;2023-02-28T02:28:22;4.67;;;3.40;;
15848;SDS011;8024;48.708;9.394;2023-02-28T02:31:06;3.03;;;2.83;;
15848;SDS011;8024;48.708;9.394;2023-02-28T02:36:43;3.10;;;2.90;;
15848;SDS011;8024;48.708;9.394;2023-02-28T02:39:14;2.80;;;2.60;;
15848;SDS011;8024;48.708;9.394;2023-02-28T02:41:49;2.63;;;2.47;;
15848;SDS011;8024;48.708;9.394;2023-02-28T02:44:20;3.23;;;2.90;;
15848;SDS011;8024;48.708;9.394;2023-02-28T02:46:51;4.80;;;2.80;;
15848;SDS011;8024;48.708;9.394;2023-02-28T02:49:23;3.13;;;2.93;;
15848;SDS011;8024;48.708;9.394;2023-02-28T02:51:53;3.67;;;3.30;;
15848;SDS011;8024;48.708;9.394;2023-02-28T02:54:22;3.17;;;2.73;;
15848;SDS011;8024;48.708;9.394;2023-02-28T02:56:53;3.10;;;2.90;;
15848;SDS011;8024;48.708;9.394;2023-02-28T02:59:22;3.30;;;3.00;;
15848;SDS011;8024;48.708;9.394;2023-02-28T03:01:51;3.63;;;3.10;;
15848;SDS011;8024;48.708;9.394;2023-02-28T03:04:21;3.07;;;2.80;;
15848;SDS011;8024;48.708;9.394;2023-02-28T03:06:51;4.20;;;3.67;;
15848;SDS011;8024;48.708;9.394;2023-02-28T03:09:19;3.57;;;3.37;;
15848;SDS011;8024;48.708;9.394;2023-02-28T03:11:47;4.43;;;3.20;;
15848;SDS011;8024;48.708;9.394;2023-02-28T03:17:15;3.70;;;3.40;;
15848;SDS011;8024;48.708;9.394;2023-02-28T03:19:54;3.87;;;3.20;;
15848;SDS011;8024;48.708;9.394;2023-02-28T03:25:27;3.73;;;3.43;;
15848;SDS011;8024;48.708;9.394;2023-02-28T03:28:03;4.10;;;3.37;;
15848;SDS011;8024;48.708;9.394;2023-02-28T03:30:38;3.43;;;2.87;;
15848;SDS011;8024;48.708;9.394;2023-02-28T03:33:09;3.60;;;3.30;;
15848;SDS011;8024;48.708;9.394;2023-02-28T03:35:42;4.83;;;3.90;;
15848;SDS011;8024;48.708;9.394;2023-02-28T03:38:13;5.57;;;3.60;;
15848;SDS011;8024;48.708;9.394;2023-02-28T03:40:46;4.27;;;3.70;;
15848;SDS011;8024;48.708;9.394;2023-02-28T03:43:17;3.70;;;3.23;;
15848;SDS011;8024;48.708;9.394;2023-02-28T03:45:49;4.23;;;3.83;;
15848;SDS011;8024;48.708;9.394;2023-02-28T03:48:18;3.40;;;3.10;;
15848;SDS011;8024;48.708;9.394;2023-02-28T03:50:50;4.57;;;4.07;;
15848;SDS011;8024;48.708;9.394;2023-02-28T03:53:21;4.90;;;3.80;;
15848;SDS011;8024;48.708;9.394;2023-02-28T03:55:52;5.07;;;3.30;;
15848;SDS011;8024;48.708;9.394;2023-02-28T03:58:24;4.10;;;3.30;;
15848;SDS011;8024;48.708;9.394;2023-02-28T04:00:56;4.57;;;3.70;;
15848;SDS011;8024;48.708;9.394;2023-02-28T04:03:33;3.50;;;3.20;;
15848;SDS011;8024;48.708;9.394;2023-02-28T04:06:03;3.87;;;3.57;;
15848;SDS011;8024;48.708;9.394;2023-02-28T04:08:32;4.47;;;3.97;;
15848;SDS011;8024;48.708;9.394;2023-02-28T04:11:00;5.33;;;3.47;;
15848;SDS011;8024;48.708;9.394;2023-02-28T04:13:31;3.93;;;3.50;;
15848;SDS011;8024;48.708;9.394;2023-02-28T04:15:58;4.60;;;3.57;;
15848;SDS011;8024;48.708;9.394;2023-02-28T04:18:25;3.97;;;3.67;;
15848;SDS011;8024;48.708;9.394;2023-02-28T04:20:52;4.20;;;3.80;;
15848;SDS011;8024;48.708;9.394;2023-02-28T04:23:20;5.27;;;4.77;;
15848;SDS011;8024;48.708;9.394;2023-02-28T04:25:48;3.93;;;3.63;;
15848;SDS011;8024;48.708;9.394;2023-02-28T04:28:16;5.50;;;4.23;;
15848;SDS011;8024;48.708;9.394;2023-02-28T04:30:43;4.03;;;3.63;;
15848;SDS011;8024;48.708;9.394;2023-02-28T04:33:10;4.57;;;4.20;;
15848;SDS011;8024;48.708;9.394;2023-02-28T04:35:37;5.20;;;4.63;;
15848;SDS011;8024;48.708;9.394;2023-02-28T04:38:04;5.13;;;4.20;;
15848;SDS011;8024;48.708;9.394;2023-02-28T04:40:33;5.40;;;4.37;;
15848;SDS011;8024;48.708;9.394;2023-02-28T04:43:01;3.87;;;3.57;;
15848;SDS011;8024;48.708;9.394;2023-02-28T04:45:28;4.40;;;3.87;;
15848;SDS011;8024;48.708;9.394;2023-02-28T04:47:57;4.57;;;3.53;;
15848;SDS011;8024;48.708;9.394;2023-02-28T04:50:24;4.43;;;3.60;;
15848;SDS011;8024;48.708;9.394;2023-02-28T04:52:51;5.23;;;3.93;;
15848;SDS011;8024;48.708;9.394;2023-02-28T04:55:19;4.50;;;4.10;;
15848;SDS011;8024;48.708;9.394;2023-02-28T04:57:48;5.13;;;4.30;;
15848;SDS011;8024;48.708;9.394;2023-02-28T05:00:15;4.93;;;4.40;;
15848;SDS011;8024;48.708;9.394;2023-02-28T05:02:43;5.17;;;4.63;;
15848;SDS011;8024;48.708;9.394;2023-02-28T05:05:10;4.63;;;4.23;;
15848;SDS011;8024;48.708;9.394;2023-02-28T05:07:43;4.50;;;4.07;;
15848;SDS011;8024;48.708;9.394;2023-02-28T05:10:10;4.90;;;4.40;;
15848;SDS011;8024;48.708;9.394;2023-02-28T05:12:37;5.90;;;4.97;;
15848;SDS011;8024;48.708;9.394;2023-02-28T05:15:07;5.47;;;4.43;;
15848;SDS011;8024;48.708;9.394;2023-02-28T05:17:38;4.63;;;4.23;;
15848;SDS011;8024;48.708;9.394;2023-02-28T05:20:06;5.47;;;4.97;;
15848;SDS011;8024;48.708;9.394;2023-02-28T05:22:35;6.60;;;4.73;;
15848;SDS011;8024;48.708;9.394;2023-02-28T05:25:03;5.63;;;4.93;;
15848;SDS011;8024;48.708;9.394;2023-02-28T05:27:30;5.60;;;5.07;;
15848;SDS011;8024;48.708;9.394;2023-02-28T05:29:57;5.50;;;5.00;;
15848;SDS011;8024;48.708;9.394;2023-02-28T05:32:28;4.53;;;4.23;;
15848;SDS011;8024;48.708;9.394;2023-02-28T05:34:56;5.13;;;4.60;;
15848;SDS011;8024;48.708;9.394;2023-02-28T05:37:23;4.47;;;4.03;;
15848;SDS011;8024;48.708;9.394;2023-02-28T05:39:50;5.53;;;4.93;;
15848;SDS011;8024;48.708;9.394;2023-02-28T05:42:17;6.33;;;5.10;;
15848;SDS011;8024;48.708;9.394;2023-02-28T05:44:44;5.97;;;5.37;;
15848;SDS011;8024;48.708;9.394;2023-02-28T05:47:12;4.70;;;4.30;;
15848;SDS011;8024;48.708;9.394;2023-02-28T05:49:41;4.90;;;4.50;;
15848;SDS011;8024;48.708;9.394;2023-02-28T05:52:09;5.20;;;4.67;;
15848;SDS011;8024;48.708;9.394;2023-02-28T05:54:36;6.07;;;5.20;;
15848;SDS011;8024;48.708;9.394;2023-02-28T05:57:03;6.50;;;5.10;;
15848;SDS011;8024;48.708;9.394;2023-02-28T05:59:30;5.13;;;4.63;;
15848;SDS011;8024;48.708;9.394;2023-02-28T06:01:57;6.50;;;5.53;;
15848;SDS011;8024;48.708;9.394;2023-02-28T06:04:24;5.63;;;5.13;;
15848;SDS011;8024;48.708;9.394;2023-02-28T06:06:53;5.67;;;5.17;;
15848;SDS011;8024;48.708;9.394;2023-02-28T06:09:22;5.83;;;5.07;;
15848;SDS011;8024;48.708;9.394;2023-02-28T06:11:50;5.13;;;4.73;;
15848;SDS011;8024;48.708;9.394;2023-02-28T06:14:17;5.93;;;5.07;;
15848;SDS011;8024;48.708;9.394;2023-02-28T06:16:45;5.33;;;4.83;;
15848;SDS011;8024;48.708;9.394;2023-02-28T06:19:12;6.37;;;5.77;;
15848;SDS011;8024;48.708;9.394;2023-02-28T06:21:40;5.87;;;4.70;;
15848;SDS011;8024;48.708;9.394;2023-02-28T06:24:08;6.37;;;5.33;;
15848;SDS011;8024;48.708;9.394;2023-02-28T06:26:36;5.80;;;5.20;;
15848;SDS011;8024;48.708;9.394;2023-02-28T06:29:03;5.93;;;5.30;;
15848;SDS011;8024;48.708;9.394;2023-02-28T06:31:30;6.23;;;5.43;;
15848;SDS011;8024;48.708;9.394;2023-02-28T06:33:58;6.13;;;5.53;;
15848;SDS011;8024;48.708;9.394;2023-02-28T06:36:25;5.97;;;5.17;;
15848;SDS011;8024;48.708;9.394;2023-02-28T06:38:52;6.03;;;5.13;;
15848;SDS011;8024;48.708;9.394;2023-02-28T06:41:23;6.40;;;5.63;;
15848;SDS011;8024;48.708;9.394;2023-02-28T06:43:51;6.30;;;5.57;;
15848;SDS011;8024;48.708;9.394;2023-02-28T06:46:18;6.83;;;6.23;;
15848;SDS011;8024;48.708;9.394;2023-02-28T06:48:46;6.70;;;5.63;;
15848;SDS011;8024;48.708;9.394;2023-02-28T06:51:13;8.00;;;6.23;;
15848;SDS011;8024;48.708;9.394;2023-02-28T06:53:42;7.47;;;6.30;;
15848;SDS011;8024;48.708;9.394;2023-02-28T06:56:10;7.97;;;6.30;;
15848;SDS011;8024;48.708;9.394;2023-02-28T06:58:40;6.70;;;6.10;;
15848;SDS011;8024;48.708;9.394;2023-02-28T07:01:07;7.40;;;5.67;;
15848;SDS011;8024;48.708;9.394;2023-02-28T07:03:35;6.30;;;5.70;;
15848;SDS011;8024;48.708;9.394;2023-02-28T07:06:02;7.83;;;6.63;;
15848;SDS011;8024;48.708;9.394;2023-02-28T07:08:31;7.20;;;6.50;;
15848;SDS011;8024;48.708;9.394;2023-02-28T07:10:59;7.33;;;6.60;;
15848;SDS011;8024;48.708;9.394;2023-02-28T07:13:26;6.43;;;5.77;;
15848;SDS011;8024;48.708;9.394;2023-02-28T07:15:55;7.40;;;6.17;;
15848;SDS011;8024;48.708;9.394;2023-02-28T07:18:23;6.70;;;6.00;;
15848;SDS011;8024;48.708;9.394;2023-02-28T07:20:51;7.93;;;6.33;;
15848;SDS011;8024;48.708;9.394;2023-02-28T07:23:18;7.67;;;6.83;;
15848;SDS011;8024;48.708;9.394;2023-02-28T07:25:46;8.77;;;6.33;;
15848;SDS011;8024;48.708;9.394;2023-02-28T07:28:13;6.23;;;5.57;;
15848;SDS011;8024;48.708;9.394;2023-02-28T07:30:40;7.43;;;6.80;;
15848;SDS011;8024;48.708;9.394;2023-02-28T07:33:09;7.23;;;6.07;;
15848;SDS011;8024;48.708;9.394;2023-02-28T07:35:36;7.00;;;6.13;;
15848;SDS011;8024;48.708;9.394;2023-02-28T07:38:03;6.10;;;5.50;;
15848;SDS011;8024;48.708;9.394;2023-02-28T07:40:32;8.37;;;6.77;;
15848;SDS011;8024;48.708;9.394;2023-02-28T07:43:00;6.73;;;6.10;;
15848;SDS011;8024;48.708;9.394;2023-02-28T07:45:27;7.73;;;6.60;;
15848;SDS011;8024;48.708;9.394;2023-02-28T07:47:56;7.53;;;6.57;;
15848;SDS011;8024;48.708;9.394;2023-02-28T07:50:25;7.77;;;6.57;;
15848;SDS011;8024;48.708;9.394;2023-02-28T07:52:54;8.03;;;6.80;;
15848;SDS011;8024;48.708;9.394;2023-02-28T07:55:21;6.93;;;5.97;;
15848;SDS011;8024;48.708;9.394;2023-02-28T07:57:48;6.60;;;5.90;;
15848;SDS011;8024;48.708;9.394;2023-02-28T08:00:15;8.13;;;7.33;;
15848;SDS011;8024;48.708;9.394;2023-02-28T08:02:43;7.23;;;6.53;;
15848;SDS011;8024;48.708;9.394;2023-02-28T08:05:10;7.37;;;6.67;;
15848;SDS011;8024;48.708;9.394;2023-02-28T08:07:38;8.27;;;6.87;;
15848;SDS011;8024;48.708;9.394;2023-02-28T08:10:06;7.63;;;6.83;;
15848;SDS011;8024;48.708;9.394;2023-02-28T08:12:35;6.90;;;6.07;;
15848;SDS011;8024;48.708;9.394;2023-02-28T08:15:02;8.27;;;7.00;;
15848;SDS011;8024;48.708;9.394;2023-02-28T08:17:30;6.80;;;6.10;;
15848;SDS011;8024;48.708;9.394;2023-02-28T08:19:57;7.87;;;6.27;;
15848;SDS011;8024;48.708;9.394;2023-02-28T08:22:24;7.83;;;6.73;;
15848;SDS011;8024;48.708;9.394;2023-02-28T08:24:53;9.17;;;6.73;;
15848;SDS011;8024;48.708;9.394;2023-02-28T08:27:20;7.40;;;6.80;;
15848;SDS011;8024;48.708;9.394;2023-02-28T08:29:47;8.83;;;6.63;;
15848;SDS011;8024;48.708;9.394;2023-02-28T08:32:14;6.77;;;6.17;;
15848;SDS011;8024;48.708;9.394;2023-02-28T08:34:41;8.63;;;6.37;;
15848;SDS011;8024;48.708;9.394;2023-02-28T08:37:08;6.70;;;6.00;;
15848;SDS011;8024;48.708;9.394;2023-02-28T08:39:36;7.80;;;7.00;;
15848;SDS011;8024;48.708;9.394;2023-02-28T08:42:05;6.80;;;6.20;;
15848;SDS011;8024;48.708;9.394;2023-02-28T08:44:32;7.93;;;6.63;;
15848;SDS011;8024;48.708;9.394;2023-02-28T08:46:59;8.30;;;7.10;;
15848;SDS011;8024;48.708;9.394;2023-02-28T08:49:27;7.83;;;7.03;;
15848;SDS011;8024;48.708;9.394;2023-02-28T08:51:54;7.90;;;6.93;;
15848;SDS011;8024;48.708;9.394;2023-02-28T08:54:22;7.87;;;6.97;;
15848;SDS011;8024;48.708;9.394;2023-02-28T08:56:49;8.70;;;6.83;;
15848;SDS011;8024;48.708;9.394;2023-02-28T08:59:18;8.80;;;6.63;;
15848;SDS011;8024;48.708;9.394;2023-02-28T09:01:45;8.23;;;6.70;;
15848;SDS011;8024;48.708;9.394;2023-02-28T09:04:12;7.53;;;6.83;;
15848;SDS011;8024;48.708;9.394;2023-02-28T09:06:39;7.77;;;6.83;;
15848;SDS011;8024;48.708;9.394;2023-02-28T09:09:07;7.23;;;6.23;;
15848;SDS011;8024;48.708;9.394;2023-02-28T09:11:34;8.97;;;7.50;;
15848;SDS011;8024;48.708;9.394;2023-02-28T09:14:02;9.40;;;7.40;;
15848;SDS011;8024;48.708;9.394;2023-02-28T09:16:31;7.27;;;6.57;;
15848;SDS011;8024;48.708;9.394;2023-02-28T09:18:59;7.97;;;6.67;;
15848;SDS011;8024;48.708;9.394;2023-02-28T09:21:27;6.97;;;6.10;;
15848;SDS011;8024;48.708;9.394;2023-02-28T09:23:54;8.70;;;7.27;;
15848;SDS011;8024;48.708;9.394;2023-02-28T09:26:23;8.77;;;7.03;;
15848;SDS011;8024;48.708;9.394;2023-02-28T09:28:53;8.67;;;7.00;;
15848;SDS011;8024;48.708;9.394;2023-02-28T09:31:22;7.17;;;6.47;;
15848;SDS011;8024;48.708;9.394;2023-02-28T09:33:52;9.40;;;6.60;;
15848;SDS011;8024;48.708;9.394;2023-02-28T09:36:21;7.57;;;6.87;;
15848;SDS011;8024;48.708;9.394;2023-02-28T09:38:49;6.73;;;6.13;;
15848;SDS011;8024;48.708;9.394;2023-02-28T09:41:19;7.97;;;6.60;;
15848;SDS011;8024;48.708;9.394;2023-02-28T09:43:49;8.10;;;6.67;;
15848;SDS011;8024;48.708;9.394;2023-02-28T09:46:26;8.07;;;7.27;;
15848;SDS011;8024;48.708;9.394;2023-02-28T09:48:58;7.30;;;6.70;;
15848;SDS011;8024;48.708;9.394;2023-02-28T09:51:37;7.10;;;6.37;;
15848;SDS011;8024;48.708;9.394;2023-02-28T09:54:13;8.13;;;6.57;;
15848;SDS011;8024;48.708;9.394;2023-02-28T09:56:44;7.90;;;7.10;;
15848;SDS011;8024;48.708;9.394;2023-02-28T09:59:14;8.53;;;7.17;;
15848;SDS011;8024;48.708;9.394;2023-02-28T10:01:52;7.87;;;6.57;;
15848;SDS011;8024;48.708;9.394;2023-02-28T10:04:32;6.53;;;5.93;;
15848;SDS011;8024;48.708;9.394;2023-02-28T10:07:07;8.00;;;6.67;;
15848;SDS011;8024;48.708;9.394;2023-02-28T10:09:45;8.80;;;7.07;;
15848;SDS011;8024;48.708;9.394;2023-02-28T10:12:15;8.27;;;7.07;;
15848;SDS011;8024;48.708;9.394;2023-02-28T10:14:44;8.00;;;7.13;;
15848;SDS011;8024;48.708;9.394;2023-02-28T10:17:13;9.40;;;7.83;;
15848;SDS011;8024;48.708;9.394;2023-02-28T10:19:50;8.97;;;7.43;;
15848;SDS011;8024;48.708;9.394;2023-02-28T10:22:24;7.27;;;6.57;;
15848;SDS011;8024;48.708;9.394;2023-02-28T10:24:55;8.73;;;7.50;;
15848;SDS011;8024;48.708;9.394;2023-02-28T10:27:28;8.37;;;7.30;;
15848;SDS011;8024;48.708;9.394;2023-02-28T10:29:58;9.17;;;6.73;;
15848;SDS011;8024;48.708;9.394;2023-02-28T10:32:27;8.07;;;7.27;;
15848;SDS011;8024;48.708;9.394;2023-02-28T10:34:59;9.10;;;6.80;;
15848;SDS011;8024;48.708;9.394;2023-02-28T10:37:37;9.03;;;6.97;;
15848;SDS011;8024;48.708;9.394;2023-02-28T10:40:05;8.03;;;6.83;;
15848;SDS011;8024;48.708;9.394;2023-02-28T10:42:54;9.10;;;7.70;;
15848;SDS011;8024;48.708;9.394;2023-02-28T10:45:23;10.40;;;7.03;;
15848;SDS011;8024;48.708;9.394;2023-02-28T10:47:52;12.03;;;7.27;;
15848;SDS011;8024;48.708;9.394;2023-02-28T10:50:29;7.97;;;6.63;;
15848;SDS011;8024;48.708;9.394;2023-02-28T10:53:16;8.13;;;7.33;;
15848;SDS011;8024;48.708;9.394;2023-02-28T10:55:58;7.90;;;7.00;;
15848;SDS011;8024;48.708;9.394;2023-02-28T10:58:27;7.50;;;6.73;;
15848;SDS011;8024;48.708;9.394;2023-02-28T11:00:56;7.77;;;7.07;;
15848;SDS011;8024;48.708;9.394;2023-02-28T11:03:27;7.53;;;6.83;;
15848;SDS011;8024;48.708;9.394;2023-02-28T11:06:03;9.13;;;7.13;;
15848;SDS011;8024;48.708;9.394;2023-02-28T11:08:32;10.53;;;8.07;;
15848;SDS011;8024;48.708;9.394;2023-02-28T11:11:00;8.17;;;7.47;;
15848;SDS011;8024;48.708;9.394;2023-02-28T11:13:31;8.60;;;7.57;;
15848;SDS011;8024;48.708;9.394;2023-02-28T11:16:00;7.33;;;6.63;;
15848;SDS011;8024;48.708;9.394;2023-02-28T11:18:30;8.83;;;7.40;;
15848;SDS011;8024;48.708;9.394;2023-02-28T11:21:06;7.93;;;7.13;;
15848;SDS011;8024;48.708;9.394;2023-02-28T11:23:35;8.07;;;7.27;;
15848;SDS011;8024;48.708;9.394;2023-02-28T11:26:03;7.83;;;7.03;;
15848;SDS011;8024;48.708;9.394;2023-02-28T11:28:35;8.10;;;6.93;;
15848;SDS011;8024;48.708;9.394;2023-02-28T11:31:04;8.70;;;7.27;;
15848;SDS011;8024;48.708;9.394;2023-02-28T11:33:41;6.80;;;6.20;;
15848;SDS011;8024;48.708;9.394;2023-02-28T11:36:12;7.80;;;6.37;;
15848;SDS011;8024;48.708;9.394;2023-02-28T11:38:42;6.30;;;5.70;;
15848;SDS011;8024;48.708;9.394;2023-02-28T11:41:16;5.90;;;5.03;;
15848;SDS011;8024;48.708;9.394;2023-02-28T11:43:58;6.40;;;5.80;;
15848;SDS011;8024;48.708;9.394;2023-02-28T11:46:36;6.17;;;5.57;;
15848;SDS011;8024;48.708;9.394;2023-02-28T11:49:13;6.40;;;5.80;;
15848;SDS011;8024;48.708;9.394;2023-02-28T11:51:50;6.47;;;5.87;;
15848;SDS011;8024;48.708;9.394;2023-02-28T11:54:28;7.10;;;6.40;;
15848;SDS011;8024;48.708;9.394;2023-02-28T11:57:18;7.70;;;6.70;;
15848;SDS011;8024;48.708;9.394;2023-02-28T11:59:56;6.80;;;6.20;;
15848;SDS011;8024;48.708;9.394;2023-02-28T12:02:33;7.80;;;7.10;;
15848;SDS011;8024;48.708;9.394;2023-02-28T12:05:11;8.93;;;7.07;;
15848;SDS011;8024;48.708;9.394;2023-02-28T12:07:49;7.87;;;6.83;;
15848;SDS011;8024;48.708;9.394;2023-02-28T12:10:26;7.60;;;6.90;;
15848;SDS011;8024;48.708;9.394;2023-02-28T12:13:01;7.97;;;6.83;;
15848;SDS011;8024;48.708;9.394;2023-02-28T12:15:54;7.47;;;6.77;;
15848;SDS011;8024;48.708;9.394;2023-02-28T12:18:37;7.70;;;6.87;;
15848;SDS011;8024;48.708;9.394;2023-02-28T12:21:18;8.30;;;7.33;;
15848;SDS011;8024;48.708;9.394;2023-02-28T12:24:03;8.97;;;8.07;;
15848;SDS011;8024;48.708;9.394;2023-02-28T12:26:49;8.60;;;7.53;;
15848;SDS011;8024;48.708;9.394;2023-02-28T12:29:19;10.43;;;7.60;;
15848;SDS011;8024;48.708;9.394;2023-02-28T12:31:51;8.37;;;7.40;;
15848;SDS011;8024;48.708;9.394;2023-02-28T12:34:22;8.73;;;7.30;;
15848;SDS011;8024;48.708;9.394;2023-02-28T12:36:53;7.90;;;6.90;;
15848;SDS011;8024;48.708;9.394;2023-02-28T12:39:26;8.17;;;7.33;;
15848;SDS011;8024;48.708;9.394;2023-02-28T12:41:59;7.97;;;7.17;;
15848;SDS011;8024;48.708;9.394;2023-02-28T12:44:30;8.10;;;6.83;;
15848;SDS011;8024;48.708;9.394;2023-02-28T12:47:02;8.57;;;7.80;;
15848;SDS011;8024;48.708;9.394;2023-02-28T12:49:31;8.43;;;7.17;;
15848;SDS011;8024;48.708;9.394;2023-02-28T12:52:00;8.03;;;7.23;;
15848;SDS011;8024;48.708;9.394;2023-02-28T12:54:32;8.70;;;7.83;;
15848;SDS011;8024;48.708;9.394;2023-02-28T12:57:07;9.47;;;7.63;;
15848;SDS011;8024;48.708;9.394;2023-02-28T12:59:39;9.57;;;8.37;;
15848;SDS011;8024;48.708;9.394;2023-02-28T13:02:21;8.00;;;7.27;;
15848;SDS011;8024;48.708;9.394;2023-02-28T13:05:15;7.73;;;7.03;;
15848;SDS011;8024;48.708;9.394;2023-02-28T13:11:25;8.27;;;7.23;;
15848;SDS011;8024;48.708;9.394;2023-02-28T13:13:57;8.77;;;7.40;;
15848;SDS011;8024;48.708;9.394;2023-02-28T13:16:25;10.17;;;8.13;;
15848;SDS011;8024;48.708;9.394;2023-02-28T13:18:52;8.60;;;7.70;;
15848;SDS011;8024;48.708;9.394;2023-02-28T13:21:41;7.80;;;6.67;;
15848;SDS011;8024;48.708;9.394;2023-02-28T13:24:10;9.80;;;7.40;;
15848;SDS011;8024;48.708;9.394;2023-02-28T13:29:59;8.03;;;7.23;;
15848;SDS011;8024;48.708;9.394;2023-02-28T13:44:08;7.10;;;6.40;;
15848;SDS011;8024;48.708;9.394;2023-02-28T13:49:45;7.47;;;6.67;;
15848;SDS011;8024;48.708;9.394;2023-02-28T13:52:14;7.00;;;6.40;;
15848;SDS011;8024;48.708;9.394;2023-02-28T13:54:56;7.97;;;7.17;;
15848;SDS011;8024;48.708;9.394;2023-02-28T13:57:45;7.77;;;6.97;;
15848;SDS011;8024;48.708;9.394;2023-02-28T14:00:27;8.23;;;7.10;;
15848;SDS011;8024;48.708;9.394;2023-02-28T14:03:07;7.60;;;6.80;;
15848;SDS011;8024;48.708;9.394;2023-02-28T14:05:48;7.47;;;6.73;;
15848;SDS011;8024;48.708;9.394;2023-02-28T14:08:45;6.60;;;6.03;;
15848;SDS011;8024;48.708;9.394;2023-02-28T14:11:27;7.30;;;6.70;;
15848;SDS011;8024;48.708;9.394;2023-02-28T14:13:57;7.47;;;6.70;;
15848;SDS011;8024;48.708;9.394;2023-02-28T14:16:25;8.23;;;6.87;;
15848;SDS011;8024;48.708;9.394;2023-02-28T14:18:57;8.63;;;6.63;;
15848;SDS011;8024;48.708;9.394;2023-02-28T14:21:27;8.23;;;6.60;;
15848;SDS011;8024;48.708;9.394;2023-02-28T14:24:06;7.73;;;6.93;;
15848;SDS011;8024;48.708;9.394;2023-02-28T14:27:00;7.50;;;6.83;;
15848;SDS011;8024;48.708;9.394;2023-02-28T14:29:38;7.70;;;7.03;;
15848;SDS011;8024;48.708;9.394;2023-02-28T14:32:41;7.57;;;6.87;;
15848;SDS011;8024;48.708;9.394;2023-02-28T14:35:18;7.50;;;6.53;;
15848;SDS011;8024;48.708;9.394;2023-02-28T14:37:54;7.63;;;6.93;;
15848;SDS011;8024;48.708;9.394;2023-02-28T14:40:22;8.17;;;7.37;;
15848;SDS011;8024;48.708;9.394;2023-02-28T14:42:58;7.73;;;6.93;;
15848;SDS011;8024;48.708;9.394;2023-02-28T14:45:27;8.00;;;7.20;;
15848;SDS011;8024;48.708;9.394;2023-02-28T14:47:56;8.20;;;7.40;;
15848;SDS011;8024;48.708;9.394;2023-02-28T14:50:27;11.43;;;7.37;;
15848;SDS011;8024;48.708;9.394;2023-02-28T14:52:57;7.87;;;7.07;;
15848;SDS011;8024;48.708;9.394;2023-02-28T14:55:25;7.77;;;6.93;;
15848;SDS011;8024;48.708;9.394;2023-02-28T14:57:55;8.27;;;7.47;;
15848;SDS011;8024;48.708;9.394;2023-02-28T15:00:24;7.93;;;7.13;;
15848;SDS011;8024;48.708;9.394;2023-02-28T15:02:52;7.77;;;6.70;;
15848;SDS011;8024;48.708;9.394;2023-02-28T15:05:29;8.03;;;7.20;;
15848;SDS011;8024;48.708;9.394;2023-02-28T15:08:01;7.90;;;6.97;;
15848;SDS011;8024;48.708;9.394;2023-02-28T15:10:33;7.07;;;6.40;;
15848;SDS011;8024;48.708;9.394;2023-02-28T15:13:01;8.70;;;7.17;;
15848;SDS011;8024;48.708;9.394;2023-02-28T15:15:35;7.80;;;7.07;;
15848;SDS011;8024;48.708;9.394;2023-02-28T15:18:10;7.17;;;6.37;;
15848;SDS011;8024;48.708;9.394;2023-02-28T15:20:46;9.60;;;7.07;;
15848;SDS011;8024;48.708;9.394;2023-02-28T15:23:13;8.37;;;7.17;;
15848;SDS011;8024;48.708;9.394;2023-02-28T15:25:41;7.63;;;6.67;;
15848;SDS011;8024;48.708;9.394;2023-02-28T15:28:11;7.40;;;6.53;;
15848;SDS011;8024;48.708;9.394;2023-02-28T15:30:49;8.00;;;7.20;;
15848;SDS011;8024;48.708;9.394;2023-02-28T15:33:20;8.43;;;7.63;;
15848;SDS011;8024;48.708;9.394;2023-02-28T15:35:50;8.03;;;7.23;;
15848;SDS011;8024;48.708;9.394;2023-02-28T15:38:28;7.97;;;7.17;;
15848;SDS011;8024;48.708;9.394;2023-02-28T15:40:59;8.40;;;7.63;;
15848;SDS011;8024;48.708;9.394;2023-02-28T15:43:26;7.50;;;6.80;;
15848;SDS011;8024;48.708;9.394;2023-02-28T15:45:56;8.23;;;6.90;;
15848;SDS011;8024;48.708;9.394;2023-02-28T15:48:25;8.03;;;7.03;;
15848;SDS011;8024;48.708;9.394;2023-02-28T15:50:57;7.47;;;6.77;;
15848;SDS011;8024;48.708;9.394;2023-02-28T15:53:31;11.17;;;7.70;;